Time;durP1;ratioP1;P1;durP2;ratioP2;P2;SDS_P1;SDS_P2;PMS_P1;PMS_P2;Temp;Humidity;BMP_temperature;BMP_pressure;BME280_temperature;BME280_humidity;BME280_pressure;Samples;Min_cycle;Max_cycle;Signal;HPM_P1;HPM_P2
2023/10/05 00:03:43;;;;;;;7.93;4.00;;;14.60;99.90;;;;;;5030316;28;20200;-67
2023/10/05 00:06:15;;;;;;;8.30;4.00;;;14.60;99.90;;;;;;5022446;28;20589;-67
2023/10/05 00:08:47;;;;;;;12.00;5.03;;;14.50;99.90;;;;;;5028504;28;20641;-67
2023/10/05 00:14:12;;;;;;;5.67;3.63;;;14.40;99.90;;;;;;5017443;28;20707;-70
2023/10/05 00:16:44;;;;;;;5.73;2.67;;;14.30;99.90;;;;;;5028643;28;20212;-66
2023/10/05 00:19:13;;;;;;;12.03;3.53;;;14.40;99.90;;;;;;5030342;28;20193;-66
2023/10/05 00:21:51;;;;;;;11.17;4.43;;;14.20;99.90;;;;;;5030410;28;20275;-66
2023/10/05 00:26:56;;;;;;;9.23;4.13;;;14.20;99.90;;;;;;5030702;28;20695;-67
2023/10/05 00:29:58;;;;;;;8.07;5.10;;;14.10;99.90;;;;;;5028955;28;20202;-67
2023/10/05 00:32:33;;;;;;;8.50;3.13;;;14.10;99.90;;;;;;5024279;28;20295;-67
2023/10/05 00:35:16;;;;;;;12.30;3.90;;;14.00;99.90;;;;;;5023356;28;20283;-72
2023/10/05 00:37:45;;;;;;;10.13;4.13;;;14.10;99.90;;;;;;5028619;28;20220;-68
2023/10/05 00:43:06;;;;;;;12.10;6.80;;;14.00;99.90;;;;;;5029754;28;20615;-67
2023/10/05 00:45:34;;;;;;;15.30;9.43;;;14.00;99.90;;;;;;5029956;28;20192;-67
2023/10/05 00:48:13;;;;;;;9.50;3.60;;;14.00;99.90;;;;;;5022063;28;20193;-66
2023/10/05 00:50:40;;;;;;;11.17;3.10;;;13.90;99.90;;;;;;5028781;28;20297;-75
2023/10/05 00:53:08;;;;;;;6.50;2.77;;;13.90;99.90;;;;;;5030045;28;20192;-66
2023/10/05 00:55:36;;;;;;;4.27;1.80;;;13.90;99.90;;;;;;5028795;28;20192;-67
2023/10/05 00:58:12;;;;;;;5.00;2.50;;;13.90;99.90;;;;;;5028423;28;20725;-66
2023/10/05 01:00:50;;;;;;;5.23;2.80;;;13.90;99.90;;;;;;5022524;28;20199;-66
2023/10/05 01:03:33;;;;;;;6.23;2.27;;;14.00;99.90;;;;;;5027405;28;20215;-66
2023/10/05 01:06:26;;;;;;;10.10;2.87;;;13.90;99.90;;;;;;5012400;28;20223;-68
2023/10/05 01:09:00;;;;;;;7.87;2.60;;;13.80;99.90;;;;;;5028952;28;20224;-70
2023/10/05 01:11:40;;;;;;;6.80;2.27;;;13.80;99.90;;;;;;5028384;28;20208;-74
2023/10/05 01:14:07;;;;;;;7.60;2.80;;;13.80;99.90;;;;;;5028304;28;20543;-69
2023/10/05 01:16:35;;;;;;;11.07;2.87;;;13.90;99.90;;;;;;5025336;28;20204;-66
2023/10/05 01:19:07;;;;;;;5.67;3.30;;;13.90;99.90;;;;;;5007259;28;20613;-67
2023/10/05 01:21:36;;;;;;;6.43;2.40;;;13.80;99.90;;;;;;5021626;28;20196;-66
2023/10/05 01:24:04;;;;;;;7.87;4.00;;;13.80;99.90;;;;;;5023643;28;20196;-69
2023/10/05 01:26:37;;;;;;;4.23;2.17;;;13.90;99.90;;;;;;5027657;28;20254;-67
2023/10/05 01:29:04;;;;;;;4.60;2.23;;;13.90;99.90;;;;;;5026773;28;20274;-69
2023/10/05 01:31:32;;;;;;;6.80;2.90;;;13.80;99.90;;;;;;5026111;28;20216;-66
2023/10/05 01:34:01;;;;;;;4.83;2.30;;;13.80;99.90;;;;;;5027762;28;20582;-62
2023/10/05 01:36:28;;;;;;;9.10;2.70;;;13.90;99.90;;;;;;5025864;28;20655;-64
2023/10/05 01:39:01;;;;;;;6.47;3.20;;;13.80;99.90;;;;;;5024789;28;20277;-63
2023/10/05 01:41:28;;;;;;;4.43;2.47;;;13.90;99.90;;;;;;5019935;28;20228;-63
2023/10/05 01:43:57;;;;;;;8.83;2.83;;;14.00;99.90;;;;;;5024995;28;20549;-63
2023/10/05 01:46:24;;;;;;;4.77;2.93;;;14.10;99.90;;;;;;5028505;28;20210;-64
2023/10/05 01:48:52;;;;;;;7.27;2.33;;;14.10;99.90;;;;;;5027769;28;20196;-63
2023/10/05 01:51:25;;;;;;;7.37;2.47;;;14.00;99.90;;;;;;5010276;28;20247;-64
2023/10/05 01:53:57;;;;;;;10.23;2.40;;;13.90;99.90;;;;;;5026096;28;20188;-68
2023/10/05 01:56:24;;;;;;;5.27;2.10;;;13.90;99.90;;;;;;5022831;28;20200;-66
2023/10/05 01:58:54;;;;;;;7.37;2.53;;;13.90;99.90;;;;;;5026877;28;20616;-63
2023/10/05 02:05:23;;;;;;;7.47;2.60;;;13.90;99.90;;;;;;5026385;28;20175;-63
2023/10/05 02:07:50;;;;;;;3.77;1.90;;;13.90;99.90;;;;;;5045981;28;20284;-64
2023/10/05 02:10:20;;;;;;;5.80;2.67;;;14.00;99.90;;;;;;5031698;28;20220;-63
2023/10/05 02:12:54;;;;;;;6.80;3.00;;;14.00;99.90;;;;;;5028893;28;20216;-63
2023/10/05 02:15:28;;;;;;;6.50;3.23;;;13.90;99.90;;;;;;5030007;28;20556;-62
2023/10/05 02:18:13;;;;;;;9.23;2.53;;;13.90;99.90;;;;;;5026612;28;20192;-62
2023/10/05 02:20:43;;;;;;;3.63;1.63;;;13.80;99.90;;;;;;5013379;28;20207;-63
2023/10/05 02:23:26;;;;;;;4.90;2.53;;;13.90;99.90;;;;;;5030849;28;20250;-65
2023/10/05 02:26:01;;;;;;;7.00;2.23;;;13.80;99.90;;;;;;5031302;28;20665;-62
2023/10/05 02:28:33;;;;;;;8.70;1.90;;;13.70;99.90;;;;;;5028949;28;20585;-63
2023/10/05 02:31:01;;;;;;;8.17;2.87;;;13.60;99.90;;;;;;5025811;28;20327;-62
2023/10/05 02:33:31;;;;;;;7.97;2.80;;;13.60;99.90;;;;;;5024031;28;20199;-62
2023/10/05 02:38:49;;;;;;;10.30;2.80;;;13.70;99.90;;;;;;5039406;28;20308;-67
2023/10/05 02:41:23;;;;;;;6.60;2.43;;;13.80;99.90;;;;;;5025704;28;20262;-68
2023/10/05 02:43:52;;;;;;;6.10;2.33;;;13.70;99.90;;;;;;5025811;28;20203;-66
2023/10/05 02:46:24;;;;;;;9.60;2.40;;;13.60;99.90;;;;;;5031431;28;20200;-67
2023/10/05 02:48:51;;;;;;;6.53;2.17;;;13.70;99.90;;;;;;5030795;28;20663;-67
2023/10/05 02:51:18;;;;;;;10.80;2.83;;;13.70;99.90;;;;;;5031027;28;20286;-69
2023/10/05 02:53:46;;;;;;;6.90;2.93;;;13.60;99.90;;;;;;5028604;28;20192;-65
2023/10/05 02:56:29;;;;;;;5.03;2.80;;;13.60;99.90;;;;;;5031302;28;20196;-65
2023/10/05 02:59:02;;;;;;;6.60;2.20;;;13.60;99.90;;;;;;5030492;28;20189;-65
2023/10/05 03:01:32;;;;;;;6.17;2.40;;;13.60;99.90;;;;;;5014512;28;20211;-65
2023/10/05 03:05:06;;;;;;;5.80;2.33;;;13.60;99.90;;;;;;5025787;28;20192;-65
2023/10/05 03:06:57;;;;;;;4.53;1.83;;;13.70;99.90;;;;;;5018624;28;20293;-65
2023/10/05 03:09:26;;;;;;;8.80;2.20;;;13.70;99.90;;;;;;5025857;28;20215;-64
2023/10/05 03:11:55;;;;;;;9.17;2.33;;;13.70;99.90;;;;;;5026288;28;20271;-66
2023/10/05 03:14:23;;;;;;;7.37;2.80;;;13.70;99.90;;;;;;5025047;28;20424;-64
2023/10/05 03:16:56;;;;;;;9.37;3.77;;;13.70;99.90;;;;;;5030040;28;20241;-67
2023/10/05 03:19:24;;;;;;;8.20;3.50;;;13.70;99.90;;;;;;5027771;28;20699;-64
2023/10/05 03:21:58;;;;;;;9.27;3.60;;;13.70;99.90;;;;;;5016113;28;20676;-64
2023/10/05 03:24:25;;;;;;;11.40;3.60;;;13.80;99.90;;;;;;5010721;28;20207;-68
2023/10/05 03:26:54;;;;;;;6.30;3.07;;;13.90;99.90;;;;;;5020692;28;20193;-64
2023/10/05 03:29:24;;;;;;;4.27;2.27;;;13.90;99.90;;;;;;5025768;28;20192;-66
2023/10/05 03:32:04;;;;;;;4.97;2.40;;;13.70;99.90;;;;;;5027963;28;20611;-68
2023/10/05 03:34:32;;;;;;;4.63;1.97;;;13.80;99.90;;;;;;5026698;28;20189;-68
2023/10/05 03:37:04;;;;;;;4.83;2.40;;;13.70;99.90;;;;;;5027533;28;20189;-67
2023/10/05 03:39:37;;;;;;;8.47;2.97;;;13.60;99.90;;;;;;5029110;28;20553;-67
2023/10/05 03:42:13;;;;;;;9.33;3.00;;;13.50;99.90;;;;;;5026821;28;20227;-67
2023/10/05 03:44:40;;;;;;;7.40;2.70;;;13.60;99.90;;;;;;5027772;28;20591;-66
2023/10/05 03:47:08;;;;;;;6.37;3.00;;;13.50;99.90;;;;;;5028980;28;20752;-63
2023/10/05 03:49:36;;;;;;;6.77;2.77;;;13.60;99.90;;;;;;5027486;28;20680;-73
2023/10/05 03:52:06;;;;;;;2.67;1.90;;;13.60;99.90;;;;;;5025915;28;20262;-64
2023/10/05 03:54:34;;;;;;;4.87;2.23;;;13.50;99.90;;;;;;5020534;28;20592;-64
2023/10/05 03:57:04;;;;;;;7.47;2.50;;;13.50;99.90;;;;;;5012729;28;20207;-66
2023/10/05 03:59:33;;;;;;;5.67;2.17;;;13.50;99.90;;;;;;5023283;28;20221;-71
2023/10/05 04:02:01;;;;;;;8.13;2.50;;;13.50;99.90;;;;;;5028689;28;20270;-64
2023/10/05 04:04:28;;;;;;;7.17;2.53;;;13.60;99.90;;;;;;5027563;28;20258;-65
2023/10/05 04:06:57;;;;;;;8.43;2.33;;;13.60;99.90;;;;;;5009526;28;20244;-64
2023/10/05 04:09:28;;;;;;;6.70;2.80;;;13.50;99.90;;;;;;5021232;28;20208;-64
2023/10/05 04:11:56;;;;;;;8.43;3.13;;;13.50;99.90;;;;;;5029893;28;20291;-68
2023/10/05 04:14:26;;;;;;;5.67;2.80;;;13.60;99.90;;;;;;5028344;28;20197;-66
2023/10/05 04:16:53;;;;;;;7.77;3.00;;;13.60;99.90;;;;;;5025147;28;20193;-64
2023/10/05 04:19:20;;;;;;;6.00;3.20;;;13.60;99.90;;;;;;5028344;28;20184;-64
2023/10/05 04:21:47;;;;;;;7.70;3.30;;;13.60;99.90;;;;;;5026727;28;20192;-64
2023/10/05 04:24:14;;;;;;;9.63;3.20;;;13.60;99.90;;;;;;5022483;28;20215;-64
2023/10/05 04:26:45;;;;;;;8.67;4.00;;;13.60;99.90;;;;;;5027736;28;20229;-65
2023/10/05 04:29:14;;;;;;;11.20;4.37;;;13.50;99.90;;;;;;5029048;28;20537;-69
2023/10/05 04:31:48;;;;;;;10.27;2.47;;;13.60;99.90;;;;;;5027285;28;20294;-64
2023/10/05 04:34:18;;;;;;;10.60;3.90;;;13.60;99.90;;;;;;5027874;28;20672;-64
2023/10/05 04:36:48;;;;;;;9.20;4.53;;;13.60;99.90;;;;;;5028374;28;20279;-65
2023/10/05 04:39:26;;;;;;;9.47;2.33;;;13.70;99.90;;;;;;5023032;28;20224;-68
2023/10/05 04:41:55;;;;;;;4.90;2.50;;;13.70;99.90;;;;;;5026965;28;20239;-64
2023/10/05 04:44:23;;;;;;;7.53;2.87;;;13.60;99.90;;;;;;5023370;28;20196;-65
2023/10/05 04:46:51;;;;;;;4.27;2.53;;;13.70;99.90;;;;;;5027321;28;20219;-64
2023/10/05 04:49:20;;;;;;;5.87;2.30;;;13.70;99.90;;;;;;5028045;28;20200;-69
2023/10/05 04:51:47;;;;;;;4.93;2.63;;;13.70;99.90;;;;;;5025192;28;20679;-67
2023/10/05 04:54:18;;;;;;;10.77;2.80;;;13.60;99.90;;;;;;5023305;28;20196;-64
2023/10/05 04:57:06;;;;;;;6.97;2.10;;;13.60;99.90;;;;;;5029553;28;20286;-64
2023/10/05 05:02:20;;;;;;;6.97;2.20;;;13.60;99.90;;;;;;5026904;28;20537;-63
2023/10/05 05:07:21;;;;;;;7.10;2.43;;;13.70;99.90;;;;;;5026046;28;20240;-64
2023/10/05 05:09:50;;;;;;;5.73;1.77;;;13.60;99.90;;;;;;5023941;28;20203;-65
2023/10/05 05:12:18;;;;;;;8.17;2.40;;;13.70;99.90;;;;;;5023933;28;20834;-63
2023/10/05 05:14:53;;;;;;;4.93;2.77;;;13.70;99.90;;;;;;5025123;28;20207;-64
2023/10/05 05:17:23;;;;;;;9.47;4.10;;;13.60;99.90;;;;;;5026039;28;20694;-65
2023/10/05 05:19:55;;;;;;;6.70;2.40;;;13.60;99.90;;;;;;5026947;28;20637;-65
2023/10/05 05:22:23;;;;;;;4.90;3.03;;;13.60;99.90;;;;;;5026487;28;20335;-64
2023/10/05 05:24:51;;;;;;;8.77;2.63;;;13.60;99.90;;;;;;5023810;28;20211;-64
2023/10/05 05:29:51;;;;;;;6.90;2.33;;;13.60;99.90;;;;;;5025609;28;20191;-64
2023/10/05 05:32:21;;;;;;;7.33;2.90;;;13.70;99.90;;;;;;5028095;28;20680;-64
2023/10/05 05:34:51;;;;;;;6.03;2.73;;;13.60;99.90;;;;;;5026674;28;20704;-81
2023/10/05 05:37:31;;;;;;;5.50;2.50;;;13.60;99.90;;;;;;5026768;28;20588;-66
2023/10/05 05:40:10;;;;;;;6.43;2.83;;;13.60;99.90;;;;;;5023803;28;20196;-68
2023/10/05 05:42:37;;;;;;;6.20;2.63;;;13.60;99.90;;;;;;5028224;28;20196;-64
2023/10/05 05:45:09;;;;;;;12.00;2.27;;;13.60;99.90;;;;;;5027582;28;20676;-64
2023/10/05 05:47:36;;;;;;;8.93;2.30;;;13.60;99.90;;;;;;5026742;28;20657;-64
2023/10/05 05:50:07;;;;;;;6.10;2.60;;;13.50;99.90;;;;;;5023233;28;20204;-65
2023/10/05 05:52:35;;;;;;;6.17;2.33;;;13.50;99.90;;;;;;5021277;28;20735;-65
2023/10/05 05:55:10;;;;;;;6.20;1.80;;;13.60;99.90;;;;;;5025875;28;20311;-64
2023/10/05 05:57:37;;;;;;;8.67;1.77;;;13.60;99.90;;;;;;5028686;28;20556;-64
2023/10/05 06:00:12;;;;;;;5.37;1.83;;;13.60;99.90;;;;;;5027356;28;20196;-75
2023/10/05 06:02:40;;;;;;;5.17;1.73;;;13.70;99.90;;;;;;5027628;28;20617;-63
2023/10/05 06:05:08;;;;;;;5.50;1.90;;;13.80;99.90;;;;;;5021256;28;20197;-71
2023/10/05 06:07:38;;;;;;;15.57;2.83;;;13.80;99.90;;;;;;5029590;28;20793;-69
2023/10/05 06:10:16;;;;;;;9.13;2.87;;;13.90;99.90;;;;;;5027073;28;20687;-64
2023/10/05 06:12:48;;;;;;;6.47;2.50;;;14.00;99.90;;;;;;5026724;28;20307;-67
2023/10/05 06:15:15;;;;;;;6.17;2.77;;;13.90;99.90;;;;;;5026986;28;20226;-72
2023/10/05 06:17:43;;;;;;;6.50;2.53;;;14.10;99.90;;;;;;5024411;28;20211;-70
2023/10/05 06:20:14;;;;;;;7.13;2.37;;;14.10;99.90;;;;;;5026440;28;20188;-69
2023/10/05 06:22:45;;;;;;;5.30;2.07;;;14.10;99.90;;;;;;5029299;28;20631;-69
2023/10/05 06:25:15;;;;;;;11.25;4.28;;;14.10;99.90;;;;;;5027854;28;20254;-71
2023/10/05 06:27:47;;;;;;;7.40;3.70;;;14.30;99.90;;;;;;5026979;28;20212;-70
2023/10/05 06:30:14;;;;;;;12.73;5.53;;;14.30;99.90;;;;;;5029977;28;20520;-70
2023/10/05 06:32:44;;;;;;;6.07;2.95;;;14.40;99.90;;;;;;5032249;28;20299;-69
2023/10/05 06:35:12;;;;;;;9.63;4.10;;;14.60;99.90;;;;;;5027753;28;20660;-70
2023/10/05 06:37:40;;;;;;;11.63;4.25;;;14.50;99.90;;;;;;5028840;28;20714;-70
2023/10/05 06:40:13;;;;;;;13.83;5.50;;;14.60;99.90;;;;;;5028118;28;20188;-71
2023/10/05 06:42:42;;;;;;;9.80;2.95;;;14.70;99.90;;;;;;5032882;28;20191;-69
2023/10/05 06:45:11;;;;;;;4.05;2.47;;;14.60;99.90;;;;;;5029505;28;20251;-69
2023/10/05 06:47:38;;;;;;;3.38;1.88;;;14.50;99.90;;;;;;5033542;28;20188;-69
2023/10/05 06:50:10;;;;;;;7.55;3.58;;;14.30;99.90;;;;;;5031799;28;20234;-70
2023/10/05 06:52:41;;;;;;;5.73;2.07;;;14.40;99.90;;;;;;5027479;28;20224;-70
2023/10/05 06:55:12;;;;;;;7.37;2.10;;;14.50;99.90;;;;;;5031672;28;20212;-71
2023/10/05 06:57:43;;;;;;;9.45;3.42;;;14.30;99.90;;;;;;5025872;28;20909;-72
2023/10/05 07:00:20;;;;;;;7.53;2.20;;;14.30;99.90;;;;;;5041358;28;20286;-70
2023/10/05 07:02:49;;;;;;;5.83;2.30;;;14.40;99.90;;;;;;5038697;28;20191;-70
2023/10/05 07:05:18;;;;;;;2.73;1.70;;;14.60;99.90;;;;;;5038039;28;20675;-70
2023/10/05 07:07:45;;;;;;;6.60;2.30;;;14.70;99.90;;;;;;5037731;28;20246;-70
2023/10/05 07:10:15;;;;;;;7.20;2.30;;;14.90;99.90;;;;;;5037775;28;20717;-69
2023/10/05 07:12:46;;;;;;;5.63;2.05;;;15.00;99.90;;;;;;5040799;28;20521;-71
2023/10/05 07:15:17;;;;;;;8.90;2.25;;;15.00;99.90;;;;;;5039555;28;20192;-70
2023/10/05 07:17:45;;;;;;;3.85;2.03;;;15.30;99.90;;;;;;5043120;28;20204;-70
2023/10/05 07:20:12;;;;;;;6.80;2.17;;;15.40;99.90;;;;;;5040505;28;20292;-70
2023/10/05 07:22:40;;;;;;;5.10;2.00;;;15.80;99.90;;;;;;5041868;28;20203;-70
2023/10/05 07:25:10;;;;;;;5.22;2.63;;;16.20;99.90;;;;;;5031005;28;20211;-63
2023/10/05 07:27:39;;;;;;;8.68;2.45;;;16.00;99.90;;;;;;5026060;28;20211;-67
2023/10/05 07:30:08;;;;;;;3.42;1.80;;;15.90;99.90;;;;;;5026956;28;20290;-64
2023/10/05 07:32:37;;;;;;;4.10;2.08;;;15.70;99.90;;;;;;5028755;28;20208;-63
2023/10/05 07:35:08;;;;;;;4.18;2.20;;;15.50;99.90;;;;;;5026344;28;20220;-63
2023/10/05 07:37:35;;;;;;;11.23;2.88;;;15.50;99.90;;;;;;5023613;28;20388;-63
2023/10/05 07:40:22;;;;;;;5.65;2.08;;;15.70;99.90;;;;;;5030848;28;20391;-63
2023/10/05 07:42:49;;;;;;;3.63;2.30;;;15.50;99.90;;;;;;5029460;28;20214;-65
2023/10/05 07:45:16;;;;;;;6.20;2.30;;;15.70;99.90;;;;;;5038174;28;20192;-64
2023/10/05 07:47:44;;;;;;;7.57;2.00;;;15.80;99.90;;;;;;5029457;28;20199;-70
2023/10/05 07:50:15;;;;;;;8.55;2.70;;;15.80;99.90;;;;;;5028767;28;20292;-66
2023/10/05 07:52:48;;;;;;;3.85;2.13;;;15.90;99.90;;;;;;5028139;28;20599;-68
2023/10/05 07:55:15;;;;;;;6.65;2.33;;;16.10;99.90;;;;;;5029151;28;20670;-66
2023/10/05 07:57:43;;;;;;;12.60;2.70;;;16.20;99.90;;;;;;5029529;28;20242;-63
2023/10/05 08:00:13;;;;;;;4.90;2.78;;;16.40;99.90;;;;;;5029363;28;20211;-64
2023/10/05 08:02:41;;;;;;;6.95;2.17;;;16.50;99.90;;;;;;5029270;28;20271;-63
2023/10/05 08:05:11;;;;;;;5.72;2.10;;;16.40;99.90;;;;;;5027874;28;20227;-64
2023/10/05 08:07:39;;;;;;;5.75;2.17;;;16.50;99.90;;;;;;5027993;28;20282;-63
2023/10/05 08:10:13;;;;;;;3.42;1.85;;;16.50;99.90;;;;;;5027794;28;20537;-63
2023/10/05 08:12:40;;;;;;;6.32;2.20;;;16.30;99.90;;;;;;5029440;28;20319;-65
2023/10/05 08:15:08;;;;;;;6.70;2.63;;;16.80;99.90;;;;;;5029541;28;20207;-63
2023/10/05 08:17:36;;;;;;;13.63;2.40;;;17.00;99.90;;;;;;5029653;28;20209;-65
2023/10/05 08:20:05;;;;;;;10.95;2.40;;;17.40;99.90;;;;;;5028326;28;20200;-63
2023/10/05 08:22:34;;;;;;;4.90;2.28;;;17.30;99.90;;;;;;5027994;28;20265;-62
2023/10/05 08:25:09;;;;;;;8.60;2.88;;;16.90;99.90;;;;;;5028788;28;20662;-68
2023/10/05 08:27:38;;;;;;;5.03;2.28;;;17.20;99.90;;;;;;5028894;28;20211;-69
2023/10/05 08:30:07;;;;;;;7.70;2.30;;;17.50;99.90;;;;;;5029795;28;20192;-71
2023/10/05 08:32:36;;;;;;;5.35;1.95;;;17.80;99.90;;;;;;5027994;28;20215;-68
2023/10/05 08:35:12;;;;;;;7.30;2.53;;;17.90;99.90;;;;;;5030124;28;20200;-69
2023/10/05 08:37:43;;;;;;;9.07;2.20;;;17.90;99.90;;;;;;5033515;28;20702;-70
2023/10/05 08:40:28;;;;;;;7.45;1.92;;;18.20;99.90;;;;;;5012001;28;20258;-74
2023/10/05 08:43:08;;;;;;;7.25;2.05;;;18.80;99.90;;;;;;5029701;28;20555;-68
2023/10/05 08:46:03;;;;;;;2.53;2.20;;;18.40;99.90;;;;;;5030420;28;20200;-71
2023/10/05 08:48:35;;;;;;;5.75;2.30;;;19.90;99.90;;;;;;5028060;28;20215;-71
2023/10/05 08:51:11;;;;;;;10.68;3.03;;;19.90;99.90;;;;;;5030742;28;20284;-70
2023/10/05 08:53:49;;;;;;;6.68;2.60;;;20.40;99.90;;;;;;5028422;28;20215;-70
2023/10/05 08:56:17;;;;;;;9.73;2.40;;;20.90;99.90;;;;;;5028920;28;20191;-70
2023/10/05 08:58:48;;;;;;;5.05;2.92;;;19.40;99.90;;;;;;5029903;28;20682;-70
2023/10/05 09:01:35;;;;;;;6.97;2.30;;;19.40;99.90;;;;;;5029852;28;20192;-70
2023/10/05 09:04:11;;;;;;;4.70;2.05;;;20.70;99.90;;;;;;5026436;28;20195;-71
2023/10/05 09:07:08;;;;;;;7.18;1.90;;;21.20;99.90;;;;;;5030232;28;20227;-71
2023/10/05 09:09:37;;;;;;;7.35;3.08;;;21.60;99.90;;;;;;5036964;28;20208;-69
2023/10/05 09:12:35;;;;;;;4.40;2.05;;;21.60;99.90;;;;;;5029046;28;20192;-71
2023/10/05 09:15:27;;;;;;;4.78;2.03;;;21.20;99.90;;;;;;5021459;28;20532;-68
2023/10/05 09:20:38;;;;;;;3.30;2.22;;;19.80;99.90;;;;;;5028272;28;20552;-69
2023/10/05 09:23:07;;;;;;;7.07;2.28;;;20.60;99.90;;;;;;5027704;28;20204;-69
2023/10/05 09:25:35;;;;;;;7.97;2.05;;;21.50;99.90;;;;;;5011295;28;20204;-69
2023/10/05 09:28:12;;;;;;;7.32;2.30;;;21.80;99.90;;;;;;5027567;28;20195;-70
2023/10/05 09:30:59;;;;;;;4.05;2.10;;;22.10;99.90;;;;;;5027022;28;20196;-71
2023/10/05 09:33:33;;;;;;;7.82;2.60;;;22.80;99.90;;;;;;5028668;28;20266;-66
2023/10/05 09:36:16;;;;;;;7.93;2.60;;;22.90;99.90;;;;;;5029001;28;20270;-70
2023/10/05 09:38:46;;;;;;;6.20;2.50;;;22.80;99.90;;;;;;5019392;28;20254;-70
2023/10/05 09:41:17;;;;;;;8.52;2.63;;;22.70;99.90;;;;;;5029222;28;20254;-70
2023/10/05 09:43:51;;;;;;;3.25;2.42;;;22.60;99.90;;;;;;5028261;28;20640;-70
2023/10/05 09:46:18;;;;;;;3.80;2.15;;;22.80;99.90;;;;;;5027041;28;20215;-65
2023/10/05 09:48:46;;;;;;;5.88;2.15;;;22.60;99.90;;;;;;5027883;28;20185;-65
2023/10/05 09:51:22;;;;;;;6.05;2.33;;;22.50;99.90;;;;;;5028555;28;20207;-76
2023/10/05 09:54:00;;;;;;;6.75;2.28;;;22.60;99.90;;;;;;5018733;28;20254;-65
2023/10/05 09:56:27;;;;;;;6.03;2.60;;;22.30;99.90;;;;;;5028590;28;20202;-67
2023/10/05 09:59:15;;;;;;;7.40;2.20;;;21.30;99.90;;;;;;5029120;28;20243;-65
2023/10/05 10:01:47;;;;;;;6.63;2.60;;;20.70;99.90;;;;;;5029084;28;20188;-64
2023/10/05 10:04:29;;;;;;;2.90;1.83;;;20.30;99.90;;;;;;5026513;28;20632;-64
2023/10/05 10:06:58;;;;;;;7.50;2.15;;;20.10;99.90;;;;;;5025898;28;22080;-66
2023/10/05 10:09:26;;;;;;;3.65;2.00;;;20.20;99.90;;;;;;5028263;28;20208;-78
2023/10/05 10:12:00;;;;;;;7.80;2.38;;;19.80;99.90;;;;;;5027145;28;20200;-66
2023/10/05 10:14:28;;;;;;;2.72;2.00;;;19.40;99.90;;;;;;5026832;28;20215;-64
2023/10/05 10:17:02;;;;;;;6.28;2.20;;;19.60;99.90;;;;;;5017355;28;20624;-64
2023/10/05 10:19:43;;;;;;;4.25;2.30;;;19.60;99.90;;;;;;5030976;28;20208;-65
2023/10/05 10:22:12;;;;;;;7.25;2.85;;;19.70;99.90;;;;;;5031964;28;20196;-66
2023/10/05 10:24:40;;;;;;;7.97;3.30;;;19.60;99.90;;;;;;5030480;28;20254;-69
2023/10/05 10:27:08;;;;;;;7.53;3.75;;;19.90;99.90;;;;;;5033284;28;20207;-70
2023/10/05 10:29:58;;;;;;;6.05;2.53;;;19.40;99.90;;;;;;5024707;28;20303;-66
2023/10/05 10:32:32;;;;;;;9.23;4.57;;;19.80;99.90;;;;;;5031177;28;20254;-66
2023/10/05 10:35:26;;;;;;;6.88;2.67;;;19.60;99.90;;;;;;5033679;28;20206;-67
2023/10/05 10:37:54;;;;;;;8.82;4.20;;;19.50;99.90;;;;;;5034429;28;20207;-70
2023/10/05 10:45:45;;;;;;;9.63;4.53;;;19.80;99.90;;;;;;5036602;28;20288;-79
2023/10/05 10:48:29;;;;;;;4.75;2.65;;;20.30;99.90;;;;;;5037394;28;20192;-71
2023/10/05 10:51:00;;;;;;;6.28;2.33;;;20.80;99.90;;;;;;5024460;28;20228;-65
2023/10/05 10:53:31;;;;;;;10.52;3.63;;;20.60;99.90;;;;;;5037012;28;20209;-67
2023/10/05 10:56:04;;;;;;;7.13;2.70;;;20.60;99.90;;;;;;5029253;28;20254;-64
2023/10/05 10:58:34;;;;;;;7.03;3.72;;;20.00;99.90;;;;;;5013531;28;20727;-64
2023/10/05 11:01:04;;;;;;;10.13;3.58;;;20.10;99.90;;;;;;5030271;28;20207;-72
2023/10/05 11:03:32;;;;;;;5.68;2.85;;;20.20;99.90;;;;;;5031744;28;20204;-65
2023/10/05 11:06:01;;;;;;;8.57;3.40;;;20.00;99.90;;;;;;5034209;28;20224;-70
2023/10/05 11:08:32;;;;;;;4.30;3.42;;;19.40;99.90;;;;;;5031620;28;20232;-64
2023/10/05 11:11:15;;;;;;;8.18;2.67;;;19.80;99.90;;;;;;5031314;28;20563;-71
2023/10/05 11:13:49;;;;;;;8.80;2.60;;;19.80;99.90;;;;;;5034698;28;20214;-64
2023/10/05 11:16:17;;;;;;;8.65;2.88;;;19.90;99.90;;;;;;5030660;28;20794;-65
2023/10/05 11:19:00;;;;;;;7.32;2.65;;;20.00;99.90;;;;;;5031202;28;20200;-64
2023/10/05 11:21:32;;;;;;;4.15;2.63;;;20.00;99.90;;;;;;5030620;28;21573;-67
2023/10/05 11:24:06;;;;;;;6.15;3.50;;;20.20;99.90;;;;;;5012491;28;20218;-65
2023/10/05 11:29:28;;;;;;;8.38;4.20;;;21.70;99.90;;;;;;5023065;28;20274;-66
2023/10/05 11:32:01;;;;;;;7.65;4.18;;;21.40;99.90;;;;;;5030099;28;20722;-65
2023/10/05 11:34:54;;;;;;;9.65;5.18;;;21.20;99.90;;;;;;5028635;28;20633;-65
2023/10/05 11:37:44;;;;;;;6.90;4.20;;;21.00;99.90;;;;;;5031313;28;20715;-65
2023/10/05 11:40:23;;;;;;;11.63;5.60;;;21.10;99.90;;;;;;5029840;28;20212;-64
2023/10/05 11:42:51;;;;;;;10.05;5.35;;;21.50;99.90;;;;;;5029533;28;20649;-65
2023/10/05 11:45:18;;;;;;;7.30;4.38;;;21.00;99.90;;;;;;5030634;28;20203;-64
2023/10/05 11:47:57;;;;;;;9.15;3.80;;;21.00;99.90;;;;;;5029792;28;20202;-68
2023/10/05 11:50:25;;;;;;;7.32;4.82;;;20.50;99.90;;;;;;5029189;28;20220;-75
2023/10/05 11:52:53;;;;;;;5.22;2.50;;;20.80;99.90;;;;;;5030008;28;20558;-66
2023/10/05 11:55:20;;;;;;;7.90;4.90;;;20.20;99.90;;;;;;5029700;28;20644;-72
2023/10/05 11:57:48;;;;;;;14.80;4.07;;;20.70;99.90;;;;;;5030182;28;20196;-72
2023/10/05 12:00:18;;;;;;;7.05;2.72;;;20.90;99.90;;;;;;5029278;28;20512;-70
2023/10/05 12:02:45;;;;;;;6.05;3.33;;;21.60;99.90;;;;;;5029109;28;20193;-70
2023/10/05 12:05:13;;;;;;;3.90;2.47;;;21.80;99.90;;;;;;5027774;28;20674;-69
2023/10/05 12:07:45;;;;;;;8.38;3.35;;;22.50;99.90;;;;;;5034610;28;20318;-69
2023/10/05 12:10:13;;;;;;;9.00;3.20;;;22.10;99.90;;;;;;5030268;28;20571;-69
2023/10/05 12:12:41;;;;;;;7.93;3.60;;;22.40;99.90;;;;;;5029663;28;20208;-69
2023/10/05 12:15:17;;;;;;;5.50;3.58;;;22.30;99.90;;;;;;5029122;28;20209;-69
2023/10/05 12:17:45;;;;;;;7.53;2.92;;;22.80;99.90;;;;;;5030178;28;20188;-69
2023/10/05 12:20:14;;;;;;;7.65;3.53;;;22.10;99.90;;;;;;5028522;28;20223;-69
2023/10/05 12:22:43;;;;;;;4.80;2.70;;;21.50;99.90;;;;;;5030009;28;20267;-68
2023/10/05 12:25:14;;;;;;;4.28;3.00;;;21.50;99.90;;;;;;5022110;28;20204;-68
2023/10/05 12:27:45;;;;;;;4.25;2.70;;;21.60;99.90;;;;;;5028612;28;20620;-68
2023/10/05 12:30:12;;;;;;;8.55;3.60;;;21.20;99.90;;;;;;5029548;28;20208;-68
2023/10/05 12:32:40;;;;;;;5.13;2.63;;;20.90;99.90;;;;;;5030513;28;20507;-69
2023/10/05 12:35:13;;;;;;;3.88;2.63;;;21.00;99.90;;;;;;5029518;28;20298;-71
2023/10/05 12:37:44;;;;;;;4.82;3.08;;;21.40;99.90;;;;;;5012058;28;20283;-69
2023/10/05 12:40:26;;;;;;;5.22;3.13;;;21.50;99.90;;;;;;5037630;28;20200;-73
2023/10/05 12:42:53;;;;;;;8.80;3.10;;;21.40;99.90;;;;;;5029857;28;20246;-70
2023/10/05 12:45:42;;;;;;;5.82;2.97;;;21.40;99.90;;;;;;5024515;28;20247;-71
2023/10/05 12:48:11;;;;;;;6.82;2.80;;;22.10;99.90;;;;;;5029226;28;20548;-69
2023/10/05 12:50:42;;;;;;;7.72;2.80;;;22.50;99.90;;;;;;5027769;28;20315;-74
2023/10/05 12:53:09;;;;;;;6.60;2.88;;;22.10;99.90;;;;;;5030252;28;20188;-70
2023/10/05 12:55:37;;;;;;;10.25;3.30;;;21.60;99.90;;;;;;5027612;28;20225;-69
2023/10/05 12:58:09;;;;;;;4.00;2.40;;;21.30;99.90;;;;;;5030556;28;20188;-69
2023/10/05 13:00:45;;;;;;;3.58;2.45;;;21.10;99.90;;;;;;5004130;28;20288;-70
2023/10/05 13:03:12;;;;;;;4.15;2.80;;;21.00;99.90;;;;;;5016516;28;20192;-69
2023/10/05 13:05:45;;;;;;;6.75;2.67;;;21.00;99.90;;;;;;5022807;28;20219;-68
2023/10/05 13:08:15;;;;;;;6.30;2.97;;;21.00;99.90;;;;;;5029096;28;20680;-69
2023/10/05 13:10:44;;;;;;;3.25;2.80;;;20.90;99.90;;;;;;5029192;28;20933;-69
2023/10/05 13:13:21;;;;;;;11.13;3.53;;;20.90;99.90;;;;;;5036701;28;20196;-69
2023/10/05 13:15:50;;;;;;;8.10;3.08;;;20.80;99.90;;;;;;5022594;28;20208;-70
2023/10/05 13:18:18;;;;;;;6.10;3.25;;;20.70;99.90;;;;;;5029621;28;20192;-70
2023/10/05 13:20:55;;;;;;;3.25;2.90;;;20.20;99.90;;;;;;5029600;28;20188;-69
2023/10/05 13:23:23;;;;;;;3.08;2.75;;;19.80;99.90;;;;;;5027932;28;20644;-69
2023/10/05 13:25:52;;;;;;;3.58;2.67;;;19.80;99.90;;;;;;5028354;28;20196;-76
2023/10/05 13:28:21;;;;;;;4.32;3.03;;;19.70;99.90;;;;;;5029168;28;20246;-70
2023/10/05 13:30:50;;;;;;;6.53;2.97;;;19.50;99.90;;;;;;5026750;28;20196;-64
2023/10/05 13:33:22;;;;;;;6.20;3.17;;;19.40;99.90;;;;;;5029307;28;20687;-64
2023/10/05 13:35:51;;;;;;;5.68;3.03;;;19.00;99.90;;;;;;5024265;28;20204;-64
2023/10/05 13:38:24;;;;;;;5.28;2.75;;;19.30;99.90;;;;;;5029496;28;20204;-66
2023/10/05 13:40:57;;;;;;;6.47;2.97;;;19.40;99.90;;;;;;5021289;28;20217;-65
2023/10/05 13:43:30;;;;;;;4.30;3.10;;;19.40;99.90;;;;;;5029049;28;20196;-64
2023/10/05 13:46:07;;;;;;;4.72;2.65;;;19.50;99.90;;;;;;5027944;28;20672;-66